createdAt,value
2022-08-29T00:00:30.542Z,99432.03
2022-08-29T00:03:00.021Z,99425.47
2022-08-29T00:05:30.922Z,99424.94
2022-08-29T00:07:59.403Z,99432.25
2022-08-29T00:10:26.558Z,99427.19
2022-08-29T00:12:57.715Z,99431.44
2022-08-29T00:15:25.125Z,99422.13
2022-08-29T00:17:52.236Z,99423.97
2022-08-29T00:20:22.907Z,99424.16
2022-08-29T00:22:58.548Z,99423.78
2022-08-29T00:25:26.028Z,99429.50
2022-08-29T00:27:53.048Z,99421.94
2022-08-29T00:30:21.165Z,99427.00
2022-08-29T00:32:48.010Z,99426.84
2022-08-29T00:35:18.406Z,99437.16
2022-08-29T00:37:45.286Z,99433.25
2022-08-29T00:40:16.689Z,99438.63
2022-08-29T00:42:44.244Z,99436.59
2022-08-29T00:45:12.976Z,99448.63
2022-08-29T00:47:45.826Z,99443.75
2022-08-29T00:50:32.265Z,99452.84
2022-08-29T00:53:01.370Z,99449.16
2022-08-29T00:55:32.670Z,99447.13
2022-08-29T00:58:08.495Z,99454.38
2022-08-29T01:00:35.975Z,99455.56
2022-08-29T01:03:04.634Z,99454.38
2022-08-29T01:05:32.353Z,99463.84
2022-08-29T01:07:59.698Z,99460.13
2022-08-29T01:10:44.993Z,99464.34
2022-08-29T01:13:12.387Z,99462.81
2022-08-29T01:15:42.079Z,99463.16
2022-08-29T01:18:10.663Z,99461.81
2022-08-29T01:20:41.481Z,99469.72
2022-08-29T01:23:19.868Z,99465.34
2022-08-29T01:25:49.407Z,99455.88
2022-08-29T01:28:23.341Z,99472.91
2022-08-29T01:31:10.517Z,99465.31
2022-08-29T01:33:51.891Z,99472.56
2022-08-29T01:36:24.271Z,99466.81
2022-08-29T01:38:51.028Z,99473.03
2022-08-29T01:41:20.077Z,99466.47
2022-08-29T01:43:49.938Z,99471.03
2022-08-29T01:46:20.728Z,99465.59
2022-08-29T01:48:47.539Z,99459.03
2022-08-29T01:51:14.980Z,99461.22
2022-08-29T01:53:42.284Z,99459.31
2022-08-29T01:56:10.653Z,99470.59
2022-08-29T01:58:37.120Z,99471.66
2022-08-29T02:01:03.716Z,99468.91
2022-08-29T02:03:30.260Z,99467.78
2022-08-29T02:06:00.559Z,99463.16
2022-08-29T02:08:27.458Z,99458.59
2022-08-29T02:10:54.019Z,99464.06
2022-08-29T02:13:20.608Z,99470.00
2022-08-29T02:15:47.207Z,99468.44
2022-08-29T02:18:13.786Z,99480.63
2022-08-29T02:20:40.344Z,99473.84
2022-08-29T02:23:21.842Z,99466.22
2022-08-29T02:25:53.349Z,99465.50
2022-08-29T02:28:20.357Z,99467.31
2022-08-29T02:30:50.484Z,99458.84
2022-08-29T02:33:22.317Z,99461.03
2022-08-29T02:35:49.407Z,99453.28
2022-08-29T02:38:16.435Z,99459.19
2022-08-29T02:40:44.224Z,99466.09
2022-08-29T02:43:10.820Z,99477.63
2022-08-29T02:45:39.115Z,99477.44
2022-08-29T02:48:06.345Z,99478.91
2022-08-29T02:50:33.327Z,99476.97
2022-08-29T02:53:00.218Z,99477.53
2022-08-29T02:55:27.167Z,99469.28
2022-08-29T02:57:54.530Z,99482.66
2022-08-29T03:00:25.393Z,99486.66
2022-08-29T03:02:52.614Z,99482.63
2022-08-29T03:05:22.418Z,99483.09
2022-08-29T03:07:51.009Z,99474.44
2022-08-29T03:10:20.107Z,99480.88
2022-08-29T03:12:47.750Z,99473.97
2022-08-29T03:15:15.285Z,99478.38
2022-08-29T03:17:41.922Z,99468.50
2022-08-29T03:20:10.114Z,99471.00
2022-08-29T03:22:37.555Z,99475.50
2022-08-29T03:25:05.772Z,99479.78
2022-08-29T03:27:33.187Z,99479.88
2022-08-29T03:30:00.031Z,99476.53
2022-08-29T03:32:27.242Z,99481.53
2022-08-29T03:34:54.573Z,99476.91
2022-08-29T03:37:21.208Z,99480.97
2022-08-29T03:39:47.747Z,99472.81
2022-08-29T03:42:14.316Z,99470.19
2022-08-29T03:44:42.429Z,99477.44
2022-08-29T03:47:09.556Z,99483.66
2022-08-29T03:49:36.245Z,99489.75
2022-08-29T03:52:04.295Z,99476.66
2022-08-29T03:54:30.735Z,99483.97
2022-08-29T03:56:57.271Z,99486.59
2022-08-29T03:59:24.139Z,99491.66
2022-08-29T04:01:51.036Z,99500.13
2022-08-29T04:04:37.690Z,99498.59
2022-08-29T04:07:06.836Z,99494.47
2022-08-29T04:09:33.366Z,99493.44
2022-08-29T04:12:00.022Z,99492.00
2022-08-29T04:14:26.641Z,99492.59
2022-08-29T04:16:53.104Z,99492.38
2022-08-29T04:19:21.835Z,99490.13
2022-08-29T04:21:51.755Z,99491.50
2022-08-29T04:24:19.673Z,99504.06
2022-08-29T04:26:46.749Z,99492.97
2022-08-29T04:29:13.888Z,99498.84
2022-08-29T04:31:42.426Z,99495.78
2022-08-29T04:34:11.785Z,99503.31
2022-08-29T04:36:43.100Z,99507.53
2022-08-29T04:39:10.174Z,99508.56
2022-08-29T04:41:37.596Z,99504.78
2022-08-29T04:44:05.788Z,99510.63
2022-08-29T04:46:32.354Z,99509.25
2022-08-29T04:49:03.751Z,99513.84
2022-08-29T04:51:32.120Z,99520.56
2022-08-29T04:53:58.641Z,99525.16
2022-08-29T04:56:25.326Z,99525.16
2022-08-29T04:58:52.177Z,99524.53
2022-08-29T05:01:22.576Z,99539.28
2022-08-29T05:03:49.303Z,99539.63
2022-08-29T05:06:18.375Z,99537.28
2022-08-29T05:08:47.536Z,99544.13
2022-08-29T05:11:28.550Z,99552.94
2022-08-29T05:13:55.115Z,99561.81
2022-08-29T05:16:21.756Z,99571.13
2022-08-29T05:18:48.583Z,99567.94
2022-08-29T05:21:27.553Z,99567.63
2022-08-29T05:23:56.547Z,99575.19
2022-08-29T05:26:24.645Z,99572.50
2022-08-29T05:28:51.803Z,99577.97
2022-08-29T05:31:18.973Z,99580.75
2022-08-29T05:33:45.514Z,99580.25
2022-08-29T05:36:12.507Z,99573.34
2022-08-29T05:38:39.003Z,99572.66
2022-08-29T05:41:06.198Z,99577.53
2022-08-29T05:43:33.929Z,99571.31
2022-08-29T05:46:02.960Z,99581.47
2022-08-29T05:48:30.527Z,99585.88
2022-08-29T05:50:58.354Z,99580.28
2022-08-29T05:53:25.616Z,99581.16
2022-08-29T05:55:52.671Z,99585.88
2022-08-29T05:58:19.476Z,99579.13
2022-08-29T06:00:47.428Z,99578.78
2022-08-29T06:03:15.280Z,99589.78
2022-08-29T06:05:42.157Z,99589.59
2022-08-29T06:08:09.169Z,99590.78
2022-08-29T06:10:42.055Z,99596.69
2022-08-29T06:13:08.599Z,99599.59
2022-08-29T06:15:35.240Z,99600.41
2022-08-29T06:18:02.022Z,99605.97
2022-08-29T06:20:28.687Z,99604.63
2022-08-29T06:22:55.380Z,99609.84
2022-08-29T06:25:38.490Z,99606.16
2022-08-29T06:28:06.511Z,99601.56
2022-08-29T06:30:33.902Z,99610.69
2022-08-29T06:33:01.433Z,99601.34
2022-08-29T06:35:28.195Z,99613.53
2022-08-29T06:37:54.925Z,99624.31
2022-08-29T06:40:21.855Z,99623.94
2022-08-29T06:42:48.722Z,99626.97
2022-08-29T06:45:15.547Z,99623.38
2022-08-29T06:47:42.282Z,99621.50
2022-08-29T06:50:09.441Z,99629.63
2022-08-29T06:52:36.079Z,99636.84
2022-08-29T06:55:03.287Z,99636.69
2022-08-29T06:57:29.971Z,99629.72
2022-08-29T06:59:56.457Z,99635.28
2022-08-29T07:02:23.028Z,99636.09
2022-08-29T07:04:49.656Z,99635.53
2022-08-29T07:07:16.291Z,99642.28
2022-08-29T07:09:44.238Z,99647.22
2022-08-29T07:12:11.140Z,99635.66
2022-08-29T07:14:37.792Z,99648.50
2022-08-29T07:17:04.320Z,99637.09
2022-08-29T07:19:30.874Z,99635.66
2022-08-29T07:21:59.115Z,99642.59
2022-08-29T07:24:26.176Z,99642.91
2022-08-29T07:26:53.606Z,99639.63
2022-08-29T07:29:21.888Z,99644.88
2022-08-29T07:31:49.230Z,99638.00
2022-08-29T07:34:36.835Z,99644.22
2022-08-29T07:37:05.865Z,99644.22
2022-08-29T07:39:34.768Z,99636.84
2022-08-29T07:42:01.836Z,99638.84
2022-08-29T07:44:32.179Z,99638.94
2022-08-29T07:49:42.300Z,99639.44
2022-08-29T07:52:20.100Z,99634.94
2022-08-29T07:54:46.892Z,99631.56
2022-08-29T07:57:19.904Z,99636.13
2022-08-29T07:59:46.731Z,99631.31
2022-08-29T08:02:18.843Z,99633.53
2022-08-29T08:04:52.434Z,99627.03
2022-08-29T08:07:19.521Z,99619.44
2022-08-29T08:09:47.258Z,99627.47
2022-08-29T08:15:37.375Z,99618.38
2022-08-29T08:18:21.108Z,99626.72
2022-08-29T08:20:51.417Z,99630.75
2022-08-29T08:23:21.629Z,99632.88
2022-08-29T08:25:51.089Z,99631.44
2022-08-29T08:28:31.195Z,99638.72
2022-08-29T08:31:06.474Z,99635.47
2022-08-29T08:33:40.726Z,99640.91
2022-08-29T08:37:31.309Z,99646.69
2022-08-29T08:40:00.734Z,99643.13
2022-08-29T08:43:15.442Z,99644.06
2022-08-29T08:46:02.232Z,99648.06
2022-08-29T08:48:43.330Z,99647.28
2022-08-29T08:51:47.094Z,99656.19
2022-08-29T08:54:56.933Z,99648.50
2022-08-29T08:57:45.061Z,99639.06
2022-08-29T09:00:46.722Z,99650.75
2022-08-29T09:04:12.045Z,99650.47
2022-08-29T09:07:08.379Z,99663.22
2022-08-29T09:09:36.635Z,99664.28
2022-08-29T09:12:38.773Z,99663.63
2022-08-29T09:15:25.136Z,99664.25
2022-08-29T09:18:05.939Z,99662.19
2022-08-29T09:20:37.475Z,99663.53
2022-08-29T09:24:02.322Z,99653.72
2022-08-29T09:26:28.879Z,99658.25
2022-08-29T09:28:57.277Z,99652.13
2022-08-29T09:31:46.913Z,99656.38
2022-08-29T09:35:10.574Z,99648.69
2022-08-29T09:37:44.273Z,99649.97
2022-08-29T09:43:38.744Z,99651.84
2022-08-29T09:46:23.666Z,99650.22
2022-08-29T09:49:29.562Z,99648.84
2022-08-29T09:52:15.516Z,99643.78
2022-08-29T09:55:13.773Z,99644.56
2022-08-29T10:01:37.387Z,99650.81
2022-08-29T10:04:38.208Z,99627.47
2022-08-29T10:07:25.665Z,99643.63
2022-08-29T10:10:14.739Z,99642.84
2022-08-29T10:13:08.480Z,99644.19
2022-08-29T10:16:10.520Z,99647.56
2022-08-29T10:18:59.044Z,99646.53
2022-08-29T10:21:48.115Z,99645.50
2022-08-29T10:24:33.174Z,99635.91
2022-08-29T10:27:30.855Z,99641.69
2022-08-29T10:30:07.188Z,99637.16
2022-08-29T10:32:44.819Z,99641.13
2022-08-29T10:35:12.296Z,99638.63
2022-08-29T10:38:22.913Z,99639.22
2022-08-29T10:41:17.170Z,99636.50
2022-08-29T10:44:08.432Z,99642.25
2022-08-29T10:46:49.181Z,99642.91
2022-08-29T10:49:29.985Z,99643.47
2022-08-29T10:51:56.512Z,99650.44
2022-08-29T10:54:45.885Z,99643.81
2022-08-29T10:57:22.971Z,99635.84
2022-08-29T11:00:24.478Z,99640.03
2022-08-29T11:03:07.132Z,99638.63
2022-08-29T11:05:40.807Z,99644.66
2022-08-29T11:08:09.632Z,99644.34
2022-08-29T11:10:43.725Z,99638.34
2022-08-29T11:13:38.541Z,99639.53
2022-08-29T11:16:40.235Z,99637.38
2022-08-29T11:19:22.408Z,99636.34
2022-08-29T11:21:56.934Z,99635.16
2022-08-29T11:24:30.609Z,99629.19
2022-08-29T11:27:07.715Z,99628.28
2022-08-29T11:30:28.692Z,99630.88
2022-08-29T11:33:43.122Z,99635.03
2022-08-29T11:36:31.641Z,99629.16
2022-08-29T11:39:37.498Z,99620.50
2022-08-29T11:42:09.188Z,99616.94
2022-08-29T11:44:44.973Z,99626.78
2022-08-29T11:47:40.425Z,99620.41
2022-08-29T11:50:16.337Z,99620.84
2022-08-29T11:52:54.586Z,99621.28
2022-08-29T11:55:36.762Z,99615.09
2022-08-29T11:58:13.929Z,99612.09
2022-08-29T12:00:52.378Z,99606.13
2022-08-29T12:03:34.694Z,99616.91
2022-08-29T12:06:10.687Z,99623.63
2022-08-29T12:08:52.079Z,99622.25
2022-08-29T12:11:19.161Z,99616.94
2022-08-29T12:13:48.871Z,99615.22
2022-08-29T12:16:24.482Z,99607.25
2022-08-29T12:18:57.765Z,99604.19
2022-08-29T12:21:36.677Z,99613.31
2022-08-29T12:24:29.080Z,99606.16
2022-08-29T12:26:56.047Z,99611.69
2022-08-29T12:29:32.321Z,99613.06
2022-08-29T12:32:40.811Z,99614.88
2022-08-29T12:35:45.878Z,99613.66
2022-08-29T12:38:50.669Z,99606.97
2022-08-29T12:41:54.818Z,99609.06
2022-08-29T12:44:42.923Z,99605.22
2022-08-29T12:47:13.076Z,99602.81
2022-08-29T12:49:51.639Z,99594.19
2022-08-29T12:52:32.893Z,99591.44
2022-08-29T12:55:31.297Z,99591.59
2022-08-29T12:57:59.966Z,99592.34
2022-08-29T13:03:49.432Z,99585.66
2022-08-29T13:06:46.593Z,99591.00
2022-08-29T13:09:17.693Z,99580.69
2022-08-29T13:11:46.489Z,99582.50
2022-08-29T13:14:13.335Z,99580.19
2022-08-29T13:16:40.573Z,99575.22
2022-08-29T13:19:22.381Z,99577.81
2022-08-29T13:21:48.890Z,99578.78
2022-08-29T13:24:21.629Z,99570.25
2022-08-29T13:27:10.805Z,99571.63
2022-08-29T13:32:36.463Z,99562.34
2022-08-29T13:35:13.492Z,99572.44
2022-08-29T13:37:44.377Z,99566.94
2022-08-29T13:40:36.690Z,99570.97
2022-08-29T13:43:05.144Z,99567.66
2022-08-29T13:45:32.812Z,99552.59
2022-08-29T13:48:11.830Z,99560.66
2022-08-29T13:50:38.950Z,99560.44
2022-08-29T13:53:05.847Z,99562.28
2022-08-29T13:55:32.967Z,99562.38
2022-08-29T13:57:59.627Z,99554.50
2022-08-29T14:00:34.683Z,99556.41
2022-08-29T14:03:02.308Z,99561.75
2022-08-29T14:05:28.910Z,99550.97
2022-08-29T14:07:55.523Z,99557.50
2022-08-29T14:10:22.177Z,99555.53
2022-08-29T14:12:48.847Z,99556.25
2022-08-29T14:15:20.785Z,99553.03
2022-08-29T14:17:54.424Z,99543.69
2022-08-29T14:20:25.085Z,99551.69
2022-08-29T14:22:56.700Z,99545.75
2022-08-29T14:25:30.477Z,99549.81
2022-08-29T14:27:59.526Z,99556.19
2022-08-29T14:30:31.953Z,99559.91
2022-08-29T14:32:58.680Z,99550.00
2022-08-29T14:35:26.621Z,99541.75
2022-08-29T14:37:58.261Z,99545.84
2022-08-29T14:40:25.600Z,99548.38
2022-08-29T14:42:55.829Z,99547.91
2022-08-29T14:45:22.280Z,99542.38
2022-08-29T14:48:03.307Z,99541.44
2022-08-29T14:50:30.069Z,99536.56
2022-08-29T14:53:02.670Z,99552.34
2022-08-29T14:55:34.711Z,99544.19
2022-08-29T14:58:04.253Z,99536.44
2022-08-29T15:00:36.557Z,99536.38
2022-08-29T15:03:06.321Z,99532.59
2022-08-29T15:05:34.134Z,99532.22
2022-08-29T15:08:08.980Z,99528.72
2022-08-29T15:10:37.287Z,99528.56
2022-08-29T15:13:05.163Z,99516.59
2022-08-29T15:15:31.959Z,99520.56
2022-08-29T15:18:01.028Z,99515.53
2022-08-29T15:20:38.817Z,99516.28
2022-08-29T15:23:07.496Z,99518.50
2022-08-29T15:25:34.161Z,99512.84
2022-08-29T15:28:05.645Z,99506.50
2022-08-29T15:30:33.431Z,99517.03
2022-08-29T15:32:59.994Z,99509.38
2022-08-29T15:35:27.003Z,99510.75
2022-08-29T15:37:54.427Z,99518.63
2022-08-29T15:40:22.351Z,99521.44
2022-08-29T15:42:49.250Z,99516.13
2022-08-29T15:45:16.526Z,99522.03
2022-08-29T15:47:45.970Z,99515.69
2022-08-29T15:50:13.557Z,99521.22
2022-08-29T15:52:40.386Z,99509.06
2022-08-29T15:55:07.370Z,99517.09
2022-08-29T15:57:34.631Z,99506.44
2022-08-29T16:00:29.806Z,99504.41
2022-08-29T16:03:03.326Z,99505.53
2022-08-29T16:05:52.400Z,99504.50
2022-08-29T16:08:22.450Z,99510.66
2022-08-29T16:11:14.443Z,99506.88
2022-08-29T16:19:55.920Z,99502.78
2022-08-29T16:22:48.247Z,99495.41
2022-08-29T16:25:15.322Z,99490.56
2022-08-29T16:28:39.477Z,99497.53
2022-08-29T16:31:20.006Z,99493.34
2022-08-29T16:33:54.595Z,99493.81
2022-08-29T16:39:39.014Z,99490.28
2022-08-29T16:42:17.717Z,99491.97
2022-08-29T16:44:47.246Z,99482.50
2022-08-29T16:47:24.582Z,99487.81
2022-08-29T16:51:02.558Z,99491.16
2022-08-29T16:56:07.616Z,99493.13
2022-08-29T17:01:38.971Z,99501.34
2022-08-29T17:04:10.603Z,99512.28
2022-08-29T17:06:39.342Z,99508.28
2022-08-29T17:09:08.832Z,99507.44
2022-08-29T17:11:36.795Z,99514.38
2022-08-29T17:14:04.110Z,99512.69
2022-08-29T17:16:31.264Z,99515.63
2022-08-29T17:18:57.981Z,99515.84
2022-08-29T17:21:24.535Z,99519.63
2022-08-29T17:23:51.234Z,99519.81
2022-08-29T17:26:18.191Z,99519.78
2022-08-29T17:28:46.263Z,99518.53
2022-08-29T17:31:13.773Z,99520.59
2022-08-29T17:33:41.184Z,99520.78
2022-08-29T17:36:09.285Z,99521.56
2022-08-29T17:38:36.636Z,99524.53
2022-08-29T17:41:05.240Z,99527.41
2022-08-29T17:43:42.612Z,99521.31
2022-08-29T17:46:09.634Z,99518.28
2022-08-29T17:48:36.377Z,99524.81
2022-08-29T17:51:03.273Z,99523.69
2022-08-29T17:53:30.090Z,99516.03
2022-08-29T17:55:56.659Z,99521.13
2022-08-29T17:58:23.351Z,99521.06
2022-08-29T18:00:50.499Z,99521.44
2022-08-29T18:03:18.280Z,99525.72
2022-08-29T18:05:45.037Z,99527.13
2022-08-29T18:08:11.676Z,99529.41
2022-08-29T18:10:39.819Z,99536.59
2022-08-29T18:13:06.599Z,99539.06
2022-08-29T18:15:35.573Z,99530.91
2022-08-29T18:18:02.786Z,99537.78
2022-08-29T18:20:30.190Z,99529.56
2022-08-29T18:22:58.371Z,99534.16
2022-08-29T18:25:25.252Z,99540.88
2022-08-29T18:27:51.826Z,99543.34
2022-08-29T18:30:18.768Z,99544.78
2022-08-29T18:32:45.323Z,99551.25
2022-08-29T18:35:12.074Z,99545.75
2022-08-29T18:37:39.549Z,99552.13
2022-08-29T18:40:07.677Z,99553.13
2022-08-29T18:42:40.870Z,99548.31
2022-08-29T18:45:08.380Z,99550.00
2022-08-29T18:47:35.045Z,99545.91
2022-08-29T18:50:20.081Z,99549.94
2022-08-29T18:52:51.678Z,99554.69
2022-08-29T18:55:18.572Z,99561.72
2022-08-29T18:57:48.242Z,99566.31
2022-08-29T19:00:17.477Z,99560.41
2022-08-29T19:02:44.730Z,99554.75
2022-08-29T19:05:11.906Z,99566.25
2022-08-29T19:07:38.927Z,99569.13
2022-08-29T19:10:06.671Z,99571.66
2022-08-29T19:12:33.502Z,99565.63
2022-08-29T19:15:00.252Z,99565.69
2022-08-29T19:17:26.949Z,99575.84
2022-08-29T19:20:28.970Z,99574.69
2022-08-29T19:22:55.952Z,99571.97
2022-08-29T19:25:22.585Z,99574.75
2022-08-29T19:27:49.168Z,99570.13
2022-08-29T19:30:17.114Z,99571.53
2022-08-29T19:32:43.688Z,99567.41
2022-08-29T19:35:12.853Z,99569.25
2022-08-29T19:37:41.424Z,99569.53
2022-08-29T19:40:10.340Z,99578.50
2022-08-29T19:42:37.627Z,99571.88
2022-08-29T19:45:06.900Z,99569.56
2022-08-29T19:47:33.545Z,99566.72
2022-08-29T19:50:00.117Z,99568.31
2022-08-29T19:52:26.744Z,99564.81
2022-08-29T19:54:53.943Z,99561.75
2022-08-29T19:57:22.274Z,99561.47
2022-08-29T19:59:49.531Z,99567.09
2022-08-29T20:02:16.196Z,99566.41
2022-08-29T20:04:42.887Z,99564.38
2022-08-29T20:07:09.610Z,99564.84
2022-08-29T20:09:36.324Z,99566.41
2022-08-29T20:12:05.147Z,99568.97
2022-08-29T20:14:31.917Z,99574.63
2022-08-29T20:16:59.137Z,99576.59
2022-08-29T20:19:26.986Z,99573.94
2022-08-29T20:21:53.617Z,99570.94
2022-08-29T20:24:20.357Z,99574.69
2022-08-29T20:26:49.603Z,99570.59
2022-08-29T20:29:17.248Z,99574.31
2022-08-29T20:31:47.734Z,99571.63
2022-08-29T20:34:14.634Z,99566.56
2022-08-29T20:36:59.793Z,99574.97
2022-08-29T20:39:26.535Z,99580.00
2022-08-29T20:41:56.039Z,99583.03
2022-08-29T20:44:28.148Z,99578.50
2022-08-29T20:46:56.837Z,99585.81
2022-08-29T20:49:25.962Z,99583.31
2022-08-29T20:51:52.889Z,99584.16
2022-08-29T20:54:22.743Z,99585.19
2022-08-29T20:56:50.401Z,99582.63
2022-08-29T20:59:17.242Z,99591.09
2022-08-29T21:01:43.994Z,99589.94
2022-08-29T21:04:30.662Z,99588.25
2022-08-29T21:06:59.727Z,99591.97
2022-08-29T21:09:26.985Z,99586.22
2022-08-29T21:11:54.116Z,99580.47
2022-08-29T21:14:24.148Z,99591.47
2022-08-29T21:16:51.404Z,99582.69
2022-08-29T21:19:18.832Z,99582.84
2022-08-29T21:21:45.663Z,99583.69
2022-08-29T21:24:12.191Z,99589.56
2022-08-29T21:26:39.179Z,99596.19
2022-08-29T21:29:08.179Z,99601.59
2022-08-29T21:31:35.710Z,99604.13
2022-08-29T21:34:06.768Z,99596.34
2022-08-29T21:36:36.024Z,99604.47
2022-08-29T21:39:04.648Z,99612.25
2022-08-29T21:41:32.391Z,99607.81
2022-08-29T21:43:59.077Z,99606.13
2022-08-29T21:46:30.184Z,99592.78
2022-08-29T21:48:59.441Z,99597.66
2022-08-29T21:51:28.098Z,99599.22
2022-08-29T21:53:56.153Z,99604.88
2022-08-29T21:56:24.899Z,99601.53
2022-08-29T21:58:54.033Z,99603.69
2022-08-29T22:01:23.710Z,99601.16
2022-08-29T22:03:50.886Z,99600.75
2022-08-29T22:06:18.092Z,99597.34
2022-08-29T22:08:45.644Z,99592.97
2022-08-29T22:11:15.277Z,99593.94
2022-08-29T22:13:41.855Z,99599.38
2022-08-29T22:16:27.352Z,99600.53
2022-08-29T22:18:54.410Z,99609.00
2022-08-29T22:21:21.113Z,99606.28
2022-08-29T22:23:47.622Z,99601.56
2022-08-29T22:26:14.745Z,99603.47
2022-08-29T22:28:42.772Z,99602.59
2022-08-29T22:31:09.347Z,99600.59
2022-08-29T22:33:35.912Z,99597.72
2022-08-29T22:36:02.557Z,99594.84
2022-08-29T22:38:29.755Z,99599.81
2022-08-29T22:40:56.321Z,99596.44
2022-08-29T22:43:24.086Z,99597.09
2022-08-29T22:45:50.704Z,99596.09
2022-08-29T22:48:20.359Z,99595.41
2022-08-29T22:50:58.182Z,99589.53
2022-08-29T22:53:25.259Z,99595.50
2022-08-29T22:55:51.730Z,99596.44
2022-08-29T22:58:18.233Z,99606.50
2022-08-29T23:00:44.724Z,99606.13
2022-08-29T23:03:11.259Z,99605.84
2022-08-29T23:05:37.756Z,99599.16
2022-08-29T23:08:04.246Z,99594.97
2022-08-29T23:10:32.091Z,99593.63
2022-08-29T23:12:58.548Z,99597.34
2022-08-29T23:15:25.221Z,99592.25
2022-08-29T23:17:51.702Z,99595.06
2022-08-29T23:20:19.169Z,99598.78
2022-08-29T23:22:45.994Z,99597.78
2022-08-29T23:25:15.142Z,99593.78
2022-08-29T23:27:42.007Z,99595.34
2022-08-29T23:30:11.754Z,99597.41
2022-08-29T23:32:38.762Z,99608.59
2022-08-29T23:35:06.364Z,99603.16
2022-08-29T23:37:33.216Z,99600.53
2022-08-29T23:40:01.030Z,99602.31
2022-08-29T23:42:28.061Z,99606.41
2022-08-29T23:44:54.621Z,99598.41
2022-08-29T23:47:21.195Z,99594.53
2022-08-29T23:49:47.945Z,99595.38
2022-08-29T23:52:14.703Z,99591.25
2022-08-29T23:54:41.454Z,99584.13
2022-08-29T23:57:08.316Z,99576.84
2022-08-29T23:59:53.537Z,99572.28
